sensor_id;sensor_type;location;lat;lon;timestamp;temperature;humidity
65584;DHT22;70321;43.592;1.456;2023-08-24T00:01:48;31.36;45.89
65584;DHT22;70321;43.592;1.456;2023-08-24T00:04:15;31.35;46.06
65584;DHT22;70321;43.592;1.456;2023-08-24T00:06:41;31.30;46.13
65584;DHT22;70321;43.592;1.456;2023-08-24T00:09:08;31.23;45.88
65584;DHT22;70321;43.592;1.456;2023-08-24T00:11:35;31.28;46.80
65584;DHT22;70321;43.592;1.456;2023-08-24T00:14:02;31.21;46.55
65584;DHT22;70321;43.592;1.456;2023-08-24T00:16:29;31.19;46.84
65584;DHT22;70321;43.592;1.456;2023-08-24T00:18:55;31.09;46.97
65584;DHT22;70321;43.592;1.456;2023-08-24T00:21:22;31.02;46.96
65584;DHT22;70321;43.592;1.456;2023-08-24T00:23:50;30.99;47.28
65584;DHT22;70321;43.592;1.456;2023-08-24T00:26:17;31.02;48.02
65584;DHT22;70321;43.592;1.456;2023-08-24T00:28:44;30.96;47.08
65584;DHT22;70321;43.592;1.456;2023-08-24T00:31:13;30.89;47.88
65584;DHT22;70321;43.592;1.456;2023-08-24T00:33:41;30.89;47.58
65584;DHT22;70321;43.592;1.456;2023-08-24T00:36:08;30.81;47.45
65584;DHT22;70321;43.592;1.456;2023-08-24T00:38:34;30.72;47.52
65584;DHT22;70321;43.592;1.456;2023-08-24T00:41:01;30.71;47.87
65584;DHT22;70321;43.592;1.456;2023-08-24T00:43:29;30.65;48.19
65584;DHT22;70321;43.592;1.456;2023-08-24T00:45:57;30.67;48.00
65584;DHT22;70321;43.592;1.456;2023-08-24T00:48:26;30.63;48.10
65584;DHT22;70321;43.592;1.456;2023-08-24T00:51:01;30.58;48.02
65584;DHT22;70321;43.592;1.456;2023-08-24T00:53:29;30.54;48.29
65584;DHT22;70321;43.592;1.456;2023-08-24T00:55:56;30.53;47.84
65584;DHT22;70321;43.592;1.456;2023-08-24T00:58:24;30.53;48.44
65584;DHT22;70321;43.592;1.456;2023-08-24T01:00:53;30.51;48.55
65584;DHT22;70321;43.592;1.456;2023-08-24T01:03:22;30.55;49.16
65584;DHT22;70321;43.592;1.456;2023-08-24T01:05:50;30.51;48.67
65584;DHT22;70321;43.592;1.456;2023-08-24T01:08:20;30.45;48.55
65584;DHT22;70321;43.592;1.456;2023-08-24T01:16:55;30.44;48.30
65584;DHT22;70321;43.592;1.456;2023-08-24T01:19:43;30.40;49.40
65584;DHT22;70321;43.592;1.456;2023-08-24T01:24:57;30.31;48.19
65584;DHT22;70321;43.592;1.456;2023-08-24T01:27:27;30.23;48.47
65584;DHT22;70321;43.592;1.456;2023-08-24T01:29:55;30.20;48.88
65584;DHT22;70321;43.592;1.456;2023-08-24T01:32:23;30.16;48.49
65584;DHT22;70321;43.592;1.456;2023-08-24T01:34:50;30.14;48.42
65584;DHT22;70321;43.592;1.456;2023-08-24T01:37:17;30.16;48.80
65584;DHT22;70321;43.592;1.456;2023-08-24T01:40:05;30.10;48.68
65584;DHT22;70321;43.592;1.456;2023-08-24T01:42:46;30.07;48.39
65584;DHT22;70321;43.592;1.456;2023-08-24T01:45:16;30.03;48.70
65584;DHT22;70321;43.592;1.456;2023-08-24T01:47:47;30.03;48.81
65584;DHT22;70321;43.592;1.456;2023-08-24T01:50:16;30.00;48.73
65584;DHT22;70321;43.592;1.456;2023-08-24T01:52:42;29.93;48.94
65584;DHT22;70321;43.592;1.456;2023-08-24T01:55:10;29.94;49.17
65584;DHT22;70321;43.592;1.456;2023-08-24T01:57:38;29.96;49.01
65584;DHT22;70321;43.592;1.456;2023-08-24T02:00:05;29.91;49.17
65584;DHT22;70321;43.592;1.456;2023-08-24T02:02:36;29.93;49.21
65584;DHT22;70321;43.592;1.456;2023-08-24T02:05:03;29.93;49.25
65584;DHT22;70321;43.592;1.456;2023-08-24T02:07:30;29.90;48.96
65584;DHT22;70321;43.592;1.456;2023-08-24T02:09:57;29.84;49.00
65584;DHT22;70321;43.592;1.456;2023-08-24T02:12:23;29.80;49.06
65584;DHT22;70321;43.592;1.456;2023-08-24T02:14:50;29.83;49.30
65584;DHT22;70321;43.592;1.456;2023-08-24T02:17:16;29.81;49.31
65584;DHT22;70321;43.592;1.456;2023-08-24T02:19:43;29.77;49.22
65584;DHT22;70321;43.592;1.456;2023-08-24T02:22:10;29.76;49.50
65584;DHT22;70321;43.592;1.456;2023-08-24T02:24:36;29.79;49.61
65584;DHT22;70321;43.592;1.456;2023-08-24T02:27:03;29.76;49.45
65584;DHT22;70321;43.592;1.456;2023-08-24T02:29:30;29.76;49.67
65584;DHT22;70321;43.592;1.456;2023-08-24T02:31:56;29.73;49.79
65584;DHT22;70321;43.592;1.456;2023-08-24T02:34:23;29.69;49.62
65584;DHT22;70321;43.592;1.456;2023-08-24T02:36:50;29.66;49.77
65584;DHT22;70321;43.592;1.456;2023-08-24T02:39:16;29.62;50.06
65584;DHT22;70321;43.592;1.456;2023-08-24T02:41:43;29.59;49.94
65584;DHT22;70321;43.592;1.456;2023-08-24T02:44:09;29.58;50.42
65584;DHT22;70321;43.592;1.456;2023-08-24T02:46:36;29.55;50.32
65584;DHT22;70321;43.592;1.456;2023-08-24T02:49:03;29.56;50.52
65584;DHT22;70321;43.592;1.456;2023-08-24T02:51:29;29.52;50.71
65584;DHT22;70321;43.592;1.456;2023-08-24T02:53:57;29.48;50.64
65584;DHT22;70321;43.592;1.456;2023-08-24T02:56:24;29.46;50.46
65584;DHT22;70321;43.592;1.456;2023-08-24T02:58:51;29.46;50.90
65584;DHT22;70321;43.592;1.456;2023-08-24T03:01:17;29.48;51.32
65584;DHT22;70321;43.592;1.456;2023-08-24T03:03:44;29.45;51.40
65584;DHT22;70321;43.592;1.456;2023-08-24T03:06:11;29.40;51.89
65584;DHT22;70321;43.592;1.456;2023-08-24T03:08:37;29.35;51.61
65584;DHT22;70321;43.592;1.456;2023-08-24T03:11:04;29.30;51.73
65584;DHT22;70321;43.592;1.456;2023-08-24T03:13:31;29.26;51.86
65584;DHT22;70321;43.592;1.456;2023-08-24T03:16:03;29.25;52.35
65584;DHT22;70321;43.592;1.456;2023-08-24T03:18:30;29.29;52.68
65584;DHT22;70321;43.592;1.456;2023-08-24T03:20:57;29.28;52.39
65584;DHT22;70321;43.592;1.456;2023-08-24T03:23:24;29.23;52.13
65584;DHT22;70321;43.592;1.456;2023-08-24T03:25:51;29.19;52.54
65584;DHT22;70321;43.592;1.456;2023-08-24T03:28:17;29.15;52.85
65584;DHT22;70321;43.592;1.456;2023-08-24T03:30:49;29.11;52.67
65584;DHT22;70321;43.592;1.456;2023-08-24T03:33:16;29.09;52.95
65584;DHT22;70321;43.592;1.456;2023-08-24T03:35:43;29.06;52.74
65584;DHT22;70321;43.592;1.456;2023-08-24T03:38:10;29.06;53.29
65584;DHT22;70321;43.592;1.456;2023-08-24T03:40:37;29.11;53.40
65584;DHT22;70321;43.592;1.456;2023-08-24T03:43:04;29.06;52.92
65584;DHT22;70321;43.592;1.456;2023-08-24T03:45:30;29.06;53.41
65584;DHT22;70321;43.592;1.456;2023-08-24T03:47:57;28.96;53.63
65584;DHT22;70321;43.592;1.456;2023-08-24T03:50:24;28.94;53.86
65584;DHT22;70321;43.592;1.456;2023-08-24T03:52:51;28.91;53.84
65584;DHT22;70321;43.592;1.456;2023-08-24T03:55:18;28.94;54.10
65584;DHT22;70321;43.592;1.456;2023-08-24T03:57:45;28.94;54.24
65584;DHT22;70321;43.592;1.456;2023-08-24T04:00:12;28.91;54.33
65584;DHT22;70321;43.592;1.456;2023-08-24T04:02:43;28.88;54.69
65584;DHT22;70321;43.592;1.456;2023-08-24T04:05:10;28.88;54.43
65584;DHT22;70321;43.592;1.456;2023-08-24T04:07:37;28.84;54.20
65584;DHT22;70321;43.592;1.456;2023-08-24T04:10:06;28.82;55.03
65584;DHT22;70321;43.592;1.456;2023-08-24T04:12:33;28.82;54.98
65584;DHT22;70321;43.592;1.456;2023-08-24T04:14:59;28.79;54.68
65584;DHT22;70321;43.592;1.456;2023-08-24T04:17:26;28.79;55.01
65584;DHT22;70321;43.592;1.456;2023-08-24T04:19:53;28.75;54.87
65584;DHT22;70321;43.592;1.456;2023-08-24T04:22:19;28.74;55.16
65584;DHT22;70321;43.592;1.456;2023-08-24T04:24:46;28.69;54.65
65584;DHT22;70321;43.592;1.456;2023-08-24T04:27:13;28.69;54.96
65584;DHT22;70321;43.592;1.456;2023-08-24T04:29:39;28.69;55.01
65584;DHT22;70321;43.592;1.456;2023-08-24T04:32:06;28.67;54.63
65584;DHT22;70321;43.592;1.456;2023-08-24T04:34:33;28.65;54.79
65584;DHT22;70321;43.592;1.456;2023-08-24T04:36:59;28.60;55.10
65584;DHT22;70321;43.592;1.456;2023-08-24T04:39:27;28.60;55.58
65584;DHT22;70321;43.592;1.456;2023-08-24T04:41:56;28.60;55.72
65584;DHT22;70321;43.592;1.456;2023-08-24T04:44:23;28.57;55.56
65584;DHT22;70321;43.592;1.456;2023-08-24T04:46:50;28.54;55.63
65584;DHT22;70321;43.592;1.456;2023-08-24T04:49:17;28.52;55.60
65584;DHT22;70321;43.592;1.456;2023-08-24T04:51:44;28.50;55.64
65584;DHT22;70321;43.592;1.456;2023-08-24T04:54:10;28.48;56.21
65584;DHT22;70321;43.592;1.456;2023-08-24T04:56:37;28.52;56.58
65584;DHT22;70321;43.592;1.456;2023-08-24T04:59:03;28.52;56.45
65584;DHT22;70321;43.592;1.456;2023-08-24T05:01:30;28.47;55.87
65584;DHT22;70321;43.592;1.456;2023-08-24T05:04:00;28.44;56.14
65584;DHT22;70321;43.592;1.456;2023-08-24T05:06:27;28.43;56.75
65584;DHT22;70321;43.592;1.456;2023-08-24T05:08:54;28.41;56.60
65584;DHT22;70321;43.592;1.456;2023-08-24T05:11:23;28.36;56.81
65584;DHT22;70321;43.592;1.456;2023-08-24T05:13:53;28.36;56.76
65584;DHT22;70321;43.592;1.456;2023-08-24T05:16:19;28.39;57.46
65584;DHT22;70321;43.592;1.456;2023-08-24T05:18:46;28.37;57.11
65584;DHT22;70321;43.592;1.456;2023-08-24T05:21:13;28.37;57.26
65584;DHT22;70321;43.592;1.456;2023-08-24T05:23:40;28.33;57.45
65584;DHT22;70321;43.592;1.456;2023-08-24T05:26:06;28.30;57.46
65584;DHT22;70321;43.592;1.456;2023-08-24T05:28:33;28.27;57.73
65584;DHT22;70321;43.592;1.456;2023-08-24T05:31:00;28.27;57.84
65584;DHT22;70321;43.592;1.456;2023-08-24T05:33:27;28.34;58.47
65584;DHT22;70321;43.592;1.456;2023-08-24T05:35:54;28.39;58.48
65584;DHT22;70321;43.592;1.456;2023-08-24T05:38:20;28.39;58.13
65584;DHT22;70321;43.592;1.456;2023-08-24T05:40:48;28.40;57.62
65584;DHT22;70321;43.592;1.456;2023-08-24T05:43:15;28.39;57.45
65584;DHT22;70321;43.592;1.456;2023-08-24T05:45:41;28.40;58.08
65584;DHT22;70321;43.592;1.456;2023-08-24T05:48:11;28.40;57.99
65584;DHT22;70321;43.592;1.456;2023-08-24T05:50:47;28.44;58.34
65584;DHT22;70321;43.592;1.456;2023-08-24T05:53:14;28.51;58.37
65584;DHT22;70321;43.592;1.456;2023-08-24T05:55:41;28.54;58.21
65584;DHT22;70321;43.592;1.456;2023-08-24T05:58:08;28.57;57.81
65584;DHT22;70321;43.592;1.456;2023-08-24T06:00:35;28.57;57.80
65584;DHT22;70321;43.592;1.456;2023-08-24T06:03:02;28.57;57.24
65584;DHT22;70321;43.592;1.456;2023-08-24T06:05:30;28.58;57.70
65584;DHT22;70321;43.592;1.456;2023-08-24T06:07:58;28.55;57.78
65584;DHT22;70321;43.592;1.456;2023-08-24T06:10:25;28.55;57.58
65584;DHT22;70321;43.592;1.456;2023-08-24T06:12:53;28.52;56.88
65584;DHT22;70321;43.592;1.456;2023-08-24T06:15:20;28.52;57.19
65584;DHT22;70321;43.592;1.456;2023-08-24T06:17:50;28.54;57.57
65584;DHT22;70321;43.592;1.456;2023-08-24T06:20:19;28.50;56.94
65584;DHT22;70321;43.592;1.456;2023-08-24T06:22:46;28.52;57.70
65584;DHT22;70321;43.592;1.456;2023-08-24T06:25:13;28.58;57.82
65584;DHT22;70321;43.592;1.456;2023-08-24T06:27:40;28.54;57.04
65584;DHT22;70321;43.592;1.456;2023-08-24T06:30:07;28.60;57.91
65584;DHT22;70321;43.592;1.456;2023-08-24T06:32:34;28.64;57.94
65584;DHT22;70321;43.592;1.456;2023-08-24T06:35:01;28.67;56.71
65584;DHT22;70321;43.592;1.456;2023-08-24T06:37:27;28.69;56.74
65584;DHT22;70321;43.592;1.456;2023-08-24T06:39:54;28.64;56.66
65584;DHT22;70321;43.592;1.456;2023-08-24T06:42:21;28.64;56.88
65584;DHT22;70321;43.592;1.456;2023-08-24T06:44:47;28.61;56.98
65584;DHT22;70321;43.592;1.456;2023-08-24T06:47:16;28.68;57.48
65584;DHT22;70321;43.592;1.456;2023-08-24T06:49:43;28.71;57.28
65584;DHT22;70321;43.592;1.456;2023-08-24T06:52:10;28.74;57.01
65584;DHT22;70321;43.592;1.456;2023-08-24T06:54:36;28.75;56.91
65584;DHT22;70321;43.592;1.456;2023-08-24T06:57:03;28.81;57.42
65584;DHT22;70321;43.592;1.456;2023-08-24T06:59:30;28.81;56.77
65584;DHT22;70321;43.592;1.456;2023-08-24T07:01:56;28.85;56.52
65584;DHT22;70321;43.592;1.456;2023-08-24T07:04:25;28.91;56.99
65584;DHT22;70321;43.592;1.456;2023-08-24T07:06:52;28.95;57.30
65584;DHT22;70321;43.592;1.456;2023-08-24T07:09:20;29.01;57.24
65584;DHT22;70321;43.592;1.456;2023-08-24T07:11:48;29.02;56.49
65584;DHT22;70321;43.592;1.456;2023-08-24T07:14:15;29.09;57.02
65584;DHT22;70321;43.592;1.456;2023-08-24T07:16:41;29.15;56.49
65584;DHT22;70321;43.592;1.456;2023-08-24T07:19:09;29.20;56.56
65584;DHT22;70321;43.592;1.456;2023-08-24T07:21:35;29.28;56.72
65584;DHT22;70321;43.592;1.456;2023-08-24T07:24:03;29.30;56.55
65584;DHT22;70321;43.592;1.456;2023-08-24T07:26:29;29.36;57.41
65584;DHT22;70321;43.592;1.456;2023-08-24T07:28:57;29.39;56.00
65584;DHT22;70321;43.592;1.456;2023-08-24T07:31:23;29.42;55.49
65584;DHT22;70321;43.592;1.456;2023-08-24T07:33:50;29.49;56.05
65584;DHT22;70321;43.592;1.456;2023-08-24T07:36:17;29.55;55.27
65584;DHT22;70321;43.592;1.456;2023-08-24T07:38:45;29.56;54.76
65584;DHT22;70321;43.592;1.456;2023-08-24T07:41:13;29.63;55.43
65584;DHT22;70321;43.592;1.456;2023-08-24T07:43:40;29.69;55.11
65584;DHT22;70321;43.592;1.456;2023-08-24T07:46:07;29.77;54.50
65584;DHT22;70321;43.592;1.456;2023-08-24T07:48:35;29.79;54.48
65584;DHT22;70321;43.592;1.456;2023-08-24T07:51:02;29.83;54.20
65584;DHT22;70321;43.592;1.456;2023-08-24T07:53:29;29.91;53.45
65584;DHT22;70321;43.592;1.456;2023-08-24T07:55:55;29.96;53.43
65584;DHT22;70321;43.592;1.456;2023-08-24T07:58:24;30.04;52.53
65584;DHT22;70321;43.592;1.456;2023-08-24T08:00:51;30.13;51.68
65584;DHT22;70321;43.592;1.456;2023-08-24T08:03:19;30.27;52.27
65584;DHT22;70321;43.592;1.456;2023-08-24T08:05:46;30.37;51.47
65584;DHT22;70321;43.592;1.456;2023-08-24T08:08:14;30.47;51.35
65584;DHT22;70321;43.592;1.456;2023-08-24T08:10:41;30.55;49.83
65584;DHT22;70321;43.592;1.456;2023-08-24T08:13:08;30.63;49.78
65584;DHT22;70321;43.592;1.456;2023-08-24T08:15:37;30.72;49.97
65584;DHT22;70321;43.592;1.456;2023-08-24T08:18:07;30.85;49.96
65584;DHT22;70321;43.592;1.456;2023-08-24T08:20:34;30.96;50.03
65584;DHT22;70321;43.592;1.456;2023-08-24T08:23:01;31.05;48.53
65584;DHT22;70321;43.592;1.456;2023-08-24T08:25:28;31.15;48.01
65584;DHT22;70321;43.592;1.456;2023-08-24T08:27:55;31.25;47.35
65584;DHT22;70321;43.592;1.456;2023-08-24T08:30:21;31.30;47.16
65584;DHT22;70321;43.592;1.456;2023-08-24T08:32:48;31.40;47.35
65584;DHT22;70321;43.592;1.456;2023-08-24T08:35:22;31.50;47.32
65584;DHT22;70321;43.592;1.456;2023-08-24T08:37:48;31.60;46.54
65584;DHT22;70321;43.592;1.456;2023-08-24T08:40:17;31.70;46.47
65584;DHT22;70321;43.592;1.456;2023-08-24T08:42:44;31.77;46.31
65584;DHT22;70321;43.592;1.456;2023-08-24T08:45:11;31.90;46.28
65584;DHT22;70321;43.592;1.456;2023-08-24T08:47:38;31.96;46.16
65584;DHT22;70321;43.592;1.456;2023-08-24T08:50:08;32.04;45.86
65584;DHT22;70321;43.592;1.456;2023-08-24T08:52:35;32.13;44.96
65584;DHT22;70321;43.592;1.456;2023-08-24T08:55:02;32.14;45.27
65584;DHT22;70321;43.592;1.456;2023-08-24T08:57:33;32.20;45.13
65584;DHT22;70321;43.592;1.456;2023-08-24T09:00:00;32.23;45.31
65584;DHT22;70321;43.592;1.456;2023-08-24T09:02:28;32.33;45.37
65584;DHT22;70321;43.592;1.456;2023-08-24T09:04:56;32.43;45.18
65584;DHT22;70321;43.592;1.456;2023-08-24T09:07:23;32.53;45.56
65584;DHT22;70321;43.592;1.456;2023-08-24T09:09:50;32.60;45.27
65584;DHT22;70321;43.592;1.456;2023-08-24T09:12:17;32.70;44.69
65584;DHT22;70321;43.592;1.456;2023-08-24T09:14:43;32.75;45.11
65584;DHT22;70321;43.592;1.456;2023-08-24T09:17:10;32.79;44.60
65584;DHT22;70321;43.592;1.456;2023-08-24T09:19:36;32.91;44.29
65584;DHT22;70321;43.592;1.456;2023-08-24T09:22:07;32.97;44.01
65584;DHT22;70321;43.592;1.456;2023-08-24T09:24:35;33.01;43.57
65584;DHT22;70321;43.592;1.456;2023-08-24T09:27:18;33.04;43.98
65584;DHT22;70321;43.592;1.456;2023-08-24T09:29:51;33.12;44.53
65584;DHT22;70321;43.592;1.456;2023-08-24T09:32:27;33.18;43.89
65584;DHT22;70321;43.592;1.456;2023-08-24T09:34:55;33.23;43.66
65584;DHT22;70321;43.592;1.456;2023-08-24T09:37:22;33.29;44.15
65584;DHT22;70321;43.592;1.456;2023-08-24T09:39:48;33.36;44.00
65584;DHT22;70321;43.592;1.456;2023-08-24T09:42:24;33.49;43.99
65584;DHT22;70321;43.592;1.456;2023-08-24T09:44:54;33.53;43.03
65584;DHT22;70321;43.592;1.456;2023-08-24T09:47:20;33.65;41.66
65584;DHT22;70321;43.592;1.456;2023-08-24T09:49:48;33.62;42.31
65584;DHT22;70321;43.592;1.456;2023-08-24T09:52:15;33.68;41.98
65584;DHT22;70321;43.592;1.456;2023-08-24T09:54:42;33.74;41.99
65584;DHT22;70321;43.592;1.456;2023-08-24T09:57:10;33.85;42.21
65584;DHT22;70321;43.592;1.456;2023-08-24T09:59:39;33.90;41.82
65584;DHT22;70321;43.592;1.456;2023-08-24T10:02:21;33.97;42.69
65584;DHT22;70321;43.592;1.456;2023-08-24T10:04:52;34.09;42.57
65584;DHT22;70321;43.592;1.456;2023-08-24T10:07:20;34.20;42.28
65584;DHT22;70321;43.592;1.456;2023-08-24T10:10:02;34.27;42.38
65584;DHT22;70321;43.592;1.456;2023-08-24T10:12:32;34.32;42.26
65584;DHT22;70321;43.592;1.456;2023-08-24T10:15:03;34.43;41.95
65584;DHT22;70321;43.592;1.456;2023-08-24T10:17:33;34.47;41.57
65584;DHT22;70321;43.592;1.456;2023-08-24T10:20:05;34.56;41.01
65584;DHT22;70321;43.592;1.456;2023-08-24T10:22:34;34.58;40.54
65584;DHT22;70321;43.592;1.456;2023-08-24T10:25:05;34.64;41.41
65584;DHT22;70321;43.592;1.456;2023-08-24T10:27:33;34.71;40.58
65584;DHT22;70321;43.592;1.456;2023-08-24T10:30:00;34.77;40.56
65584;DHT22;70321;43.592;1.456;2023-08-24T10:32:27;34.83;40.29
65584;DHT22;70321;43.592;1.456;2023-08-24T10:34:55;34.90;40.25
65584;DHT22;70321;43.592;1.456;2023-08-24T10:37:25;34.97;41.03
65584;DHT22;70321;43.592;1.456;2023-08-24T10:39:53;35.04;40.45
65584;DHT22;70321;43.592;1.456;2023-08-24T10:42:20;35.18;41.01
65584;DHT22;70321;43.592;1.456;2023-08-24T10:44:52;35.27;40.27
65584;DHT22;70321;43.592;1.456;2023-08-24T10:47:21;35.37;40.80
65584;DHT22;70321;43.592;1.456;2023-08-24T10:54:50;35.58;39.62
65584;DHT22;70321;43.592;1.456;2023-08-24T10:57:25;35.65;39.53
65584;DHT22;70321;43.592;1.456;2023-08-24T11:00:03;35.79;39.84
65584;DHT22;70321;43.592;1.456;2023-08-24T11:02:45;35.90;39.22
65584;DHT22;70321;43.592;1.456;2023-08-24T11:05:22;36.05;39.57
65584;DHT22;70321;43.592;1.456;2023-08-24T11:07:52;36.06;37.77
65584;DHT22;70321;43.592;1.456;2023-08-24T11:10:25;36.13;38.74
65584;DHT22;70321;43.592;1.456;2023-08-24T11:15:32;36.23;38.51
65584;DHT22;70321;43.592;1.456;2023-08-24T11:18:26;36.26;38.33
65584;DHT22;70321;43.592;1.456;2023-08-24T11:21:01;36.36;39.34
65584;DHT22;70321;43.592;1.456;2023-08-24T11:23:30;36.43;39.70
65584;DHT22;70321;43.592;1.456;2023-08-24T11:25:58;36.56;40.11
65584;DHT22;70321;43.592;1.456;2023-08-24T11:28:30;36.64;38.97
65584;DHT22;70321;43.592;1.456;2023-08-24T11:30:58;36.74;39.04
65584;DHT22;70321;43.592;1.456;2023-08-24T11:33:35;36.84;39.46
65584;DHT22;70321;43.592;1.456;2023-08-24T11:36:05;36.94;38.43
65584;DHT22;70321;43.592;1.456;2023-08-24T11:38:37;37.08;38.25
65584;DHT22;70321;43.592;1.456;2023-08-24T11:41:15;37.13;37.64
65584;DHT22;70321;43.592;1.456;2023-08-24T11:43:46;37.22;38.37
65584;DHT22;70321;43.592;1.456;2023-08-24T11:46:17;37.31;38.63
65584;DHT22;70321;43.592;1.456;2023-08-24T11:48:45;37.38;38.04
65584;DHT22;70321;43.592;1.456;2023-08-24T11:51:13;37.38;36.88
65584;DHT22;70321;43.592;1.456;2023-08-24T11:53:44;37.46;37.03
65584;DHT22;70321;43.592;1.456;2023-08-24T11:56:11;37.49;37.23
65584;DHT22;70321;43.592;1.456;2023-08-24T12:01:08;37.74;36.09
65584;DHT22;70321;43.592;1.456;2023-08-24T12:03:36;37.82;37.33
65584;DHT22;70321;43.592;1.456;2023-08-24T12:06:10;37.88;36.56
65584;DHT22;70321;43.592;1.456;2023-08-24T12:08:44;37.96;36.75
65584;DHT22;70321;43.592;1.456;2023-08-24T12:11:18;38.06;37.21
65584;DHT22;70321;43.592;1.456;2023-08-24T12:13:52;38.11;35.43
65584;DHT22;70321;43.592;1.456;2023-08-24T12:16:20;38.13;35.51
65584;DHT22;70321;43.592;1.456;2023-08-24T12:18:57;38.22;35.99
65584;DHT22;70321;43.592;1.456;2023-08-24T12:21:30;38.29;35.83
65584;DHT22;70321;43.592;1.456;2023-08-24T12:23:58;38.30;33.93
65584;DHT22;70321;43.592;1.456;2023-08-24T12:26:27;38.35;35.08
65584;DHT22;70321;43.592;1.456;2023-08-24T12:29:00;38.45;35.02
65584;DHT22;70321;43.592;1.456;2023-08-24T12:31:27;38.50;34.55
65584;DHT22;70321;43.592;1.456;2023-08-24T12:34:00;38.63;35.45
65584;DHT22;70321;43.592;1.456;2023-08-24T12:36:27;38.70;34.21
65584;DHT22;70321;43.592;1.456;2023-08-24T12:38:54;38.77;34.24
65584;DHT22;70321;43.592;1.456;2023-08-24T12:41:22;38.86;33.94
65584;DHT22;70321;43.592;1.456;2023-08-24T12:43:50;38.90;32.62
65584;DHT22;70321;43.592;1.456;2023-08-24T12:46:17;38.97;34.10
65584;DHT22;70321;43.592;1.456;2023-08-24T12:48:44;39.10;34.39
65584;DHT22;70321;43.592;1.456;2023-08-24T12:51:11;39.20;34.63
65584;DHT22;70321;43.592;1.456;2023-08-24T12:53:38;39.24;33.94
65584;DHT22;70321;43.592;1.456;2023-08-24T12:56:04;39.37;34.49
65584;DHT22;70321;43.592;1.456;2023-08-24T12:58:31;39.48;32.21
65584;DHT22;70321;43.592;1.456;2023-08-24T13:00:58;39.54;33.74
65584;DHT22;70321;43.592;1.456;2023-08-24T13:03:25;39.64;32.07
65584;DHT22;70321;43.592;1.456;2023-08-24T13:05:52;39.69;33.27
65584;DHT22;70321;43.592;1.456;2023-08-24T13:08:19;39.78;32.03
65584;DHT22;70321;43.592;1.456;2023-08-24T13:10:47;39.84;33.13
65584;DHT22;70321;43.592;1.456;2023-08-24T13:13:15;39.94;32.00
65584;DHT22;70321;43.592;1.456;2023-08-24T13:15:44;39.99;32.14
65584;DHT22;70321;43.592;1.456;2023-08-24T13:18:11;40.08;30.56
65584;DHT22;70321;43.592;1.456;2023-08-24T13:20:37;40.20;32.20
65584;DHT22;70321;43.592;1.456;2023-08-24T13:23:04;40.28;29.44
65584;DHT22;70321;43.592;1.456;2023-08-24T13:25:31;40.33;30.99
65584;DHT22;70321;43.592;1.456;2023-08-24T13:27:58;40.43;30.72
65584;DHT22;70321;43.592;1.456;2023-08-24T13:30:25;40.49;31.26
65584;DHT22;70321;43.592;1.456;2023-08-24T13:32:51;40.62;31.72
65584;DHT22;70321;43.592;1.456;2023-08-24T13:35:19;40.64;29.82
65584;DHT22;70321;43.592;1.456;2023-08-24T13:37:45;40.79;30.65
65584;DHT22;70321;43.592;1.456;2023-08-24T13:40:12;40.91;30.90
65584;DHT22;70321;43.592;1.456;2023-08-24T13:42:39;41.04;30.65
65584;DHT22;70321;43.592;1.456;2023-08-24T13:45:06;41.03;27.29
65584;DHT22;70321;43.592;1.456;2023-08-24T13:47:32;41.09;28.43
65584;DHT22;70321;43.592;1.456;2023-08-24T13:49:59;41.14;29.02
65584;DHT22;70321;43.592;1.456;2023-08-24T13:52:26;41.21;28.90
65584;DHT22;70321;43.592;1.456;2023-08-24T13:54:52;41.27;29.59
65584;DHT22;70321;43.592;1.456;2023-08-24T13:57:36;41.29;27.50
65584;DHT22;70321;43.592;1.456;2023-08-24T14:00:03;41.30;25.79
65584;DHT22;70321;43.592;1.456;2023-08-24T14:02:31;41.35;26.71
65584;DHT22;70321;43.592;1.456;2023-08-24T14:04:57;41.33;27.04
65584;DHT22;70321;43.592;1.456;2023-08-24T14:07:24;41.34;27.31
65584;DHT22;70321;43.592;1.456;2023-08-24T14:09:51;41.37;27.95
65584;DHT22;70321;43.592;1.456;2023-08-24T14:12:31;41.40;28.14
65584;DHT22;70321;43.592;1.456;2023-08-24T14:14:58;41.45;28.43
65584;DHT22;70321;43.592;1.456;2023-08-24T14:17:24;41.57;27.69
65584;DHT22;70321;43.592;1.456;2023-08-24T14:20:00;41.51;26.32
65584;DHT22;70321;43.592;1.456;2023-08-24T14:22:30;41.51;26.10
65584;DHT22;70321;43.592;1.456;2023-08-24T14:24:57;41.51;27.29
65584;DHT22;70321;43.592;1.456;2023-08-24T14:27:23;41.45;26.54
65584;DHT22;70321;43.592;1.456;2023-08-24T14:29:50;41.44;26.66
65584;DHT22;70321;43.592;1.456;2023-08-24T14:32:18;41.48;28.48
65584;DHT22;70321;43.592;1.456;2023-08-24T14:34:44;41.57;28.66
65584;DHT22;70321;43.592;1.456;2023-08-24T14:37:11;41.64;27.80
65584;DHT22;70321;43.592;1.456;2023-08-24T14:39:38;41.70;28.45
65584;DHT22;70321;43.592;1.456;2023-08-24T14:42:07;41.78;28.34
65584;DHT22;70321;43.592;1.456;2023-08-24T14:44:34;41.82;28.22
65584;DHT22;70321;43.592;1.456;2023-08-24T14:47:01;41.85;27.69
65584;DHT22;70321;43.592;1.456;2023-08-24T14:49:28;41.84;27.66
65584;DHT22;70321;43.592;1.456;2023-08-24T14:51:54;41.80;27.39
65584;DHT22;70321;43.592;1.456;2023-08-24T14:54:21;41.78;27.65
65584;DHT22;70321;43.592;1.456;2023-08-24T14:56:48;41.73;26.82
65584;DHT22;70321;43.592;1.456;2023-08-24T14:59:14;41.70;27.43
65584;DHT22;70321;43.592;1.456;2023-08-24T15:01:41;41.62;28.07
65584;DHT22;70321;43.592;1.456;2023-08-24T15:04:08;41.55;28.12
65584;DHT22;70321;43.592;1.456;2023-08-24T15:06:34;41.51;28.98
65584;DHT22;70321;43.592;1.456;2023-08-24T15:09:01;41.41;28.35
65584;DHT22;70321;43.592;1.456;2023-08-24T15:11:28;41.38;27.81
65584;DHT22;70321;43.592;1.456;2023-08-24T15:13:54;41.38;28.93
65584;DHT22;70321;43.592;1.456;2023-08-24T15:16:21;41.40;28.42
65584;DHT22;70321;43.592;1.456;2023-08-24T15:18:48;41.44;28.91
65584;DHT22;70321;43.592;1.456;2023-08-24T15:21:15;41.41;28.82
65584;DHT22;70321;43.592;1.456;2023-08-24T15:23:41;41.43;28.72
65584;DHT22;70321;43.592;1.456;2023-08-24T15:26:08;41.43;28.08
65584;DHT22;70321;43.592;1.456;2023-08-24T15:28:36;41.40;28.44
65584;DHT22;70321;43.592;1.456;2023-08-24T15:31:03;41.43;29.02
65584;DHT22;70321;43.592;1.456;2023-08-24T15:33:31;41.37;29.66
65584;DHT22;70321;43.592;1.456;2023-08-24T15:35:58;41.31;28.66
65584;DHT22;70321;43.592;1.456;2023-08-24T15:38:25;41.26;27.91
65584;DHT22;70321;43.592;1.456;2023-08-24T15:40:53;41.23;28.26
65584;DHT22;70321;43.592;1.456;2023-08-24T15:43:22;41.17;29.39
65584;DHT22;70321;43.592;1.456;2023-08-24T15:45:50;41.10;30.09
65584;DHT22;70321;43.592;1.456;2023-08-24T15:48:18;41.04;30.38
65584;DHT22;70321;43.592;1.456;2023-08-24T15:50:44;40.80;30.97
65584;DHT22;70321;43.592;1.456;2023-08-24T15:53:11;40.58;31.02
65584;DHT22;70321;43.592;1.456;2023-08-24T15:55:38;40.45;31.60